createdAt,value
2018-08-24T00:01:37.742Z,72.53
2018-08-24T00:04:08.568Z,71.15
2018-08-24T00:06:39.954Z,72.43
2018-08-24T00:09:14.131Z,71.88
2018-08-24T00:11:43.676Z,71.59
2018-08-24T00:14:13.370Z,70.98
2018-08-24T00:16:43.038Z,70.83
2018-08-24T00:19:13.626Z,70.85
2018-08-24T00:21:43.233Z,71.28
2018-08-24T00:24:13.245Z,71.06
2018-08-24T00:26:42.625Z,69.91
2018-08-24T00:29:12.311Z,70.42
2018-08-24T00:31:41.760Z,70.55
2018-08-24T00:34:11.072Z,69.18
2018-08-24T00:36:40.464Z,69.23
2018-08-24T00:39:10.065Z,70.06
2018-08-24T00:41:39.420Z,69.94
2018-08-24T00:44:08.908Z,69.83
2018-08-24T00:46:38.373Z,69.04
2018-08-24T00:49:08.392Z,69.08
2018-08-24T00:51:37.773Z,70.17
2018-08-24T00:54:07.153Z,71.56
2018-08-24T00:56:36.539Z,71.38
2018-08-24T00:59:05.937Z,71.50
2018-08-24T01:01:35.329Z,71.81
2018-08-24T01:04:04.740Z,70.61
2018-08-24T01:06:34.117Z,71.06
2018-08-24T01:09:03.566Z,70.16
2018-08-24T01:11:38.197Z,70.86
2018-08-24T01:14:07.585Z,71.35
2018-08-24T01:16:42.173Z,70.76
2018-08-24T01:19:11.561Z,70.84
2018-08-24T01:21:40.937Z,72.09
2018-08-24T01:24:10.337Z,71.11
2018-08-24T01:26:39.730Z,72.29
2018-08-24T01:29:09.070Z,72.15
2018-08-24T01:31:38.457Z,72.66
2018-08-24T01:34:07.937Z,72.47
2018-08-24T01:36:43.043Z,73.21
2018-08-24T01:39:12.500Z,73.90
2018-08-24T01:41:41.859Z,73.22
2018-08-24T01:44:11.294Z,73.97
2018-08-24T01:51:43.951Z,73.04
2018-08-24T01:54:13.513Z,74.27
2018-08-24T01:56:49.580Z,73.62
2018-08-24T01:59:18.961Z,74.03
2018-08-24T02:01:48.358Z,73.32
2018-08-24T02:04:17.757Z,74.06
2018-08-24T02:06:47.166Z,74.55
2018-08-24T02:09:16.677Z,74.40
2018-08-24T02:11:46.081Z,75.12
2018-08-24T02:14:50.158Z,75.41
2018-08-24T02:17:24.762Z,74.67
2018-08-24T02:19:59.350Z,75.32
2018-08-24T02:22:28.774Z,76.14
2018-08-24T02:24:58.158Z,76.53
2018-08-24T02:27:27.542Z,76.09
2018-08-24T02:29:58.074Z,75.96
2018-08-24T02:32:27.454Z,76.83
2018-08-24T02:34:59.509Z,77.27
2018-08-24T02:37:30.331Z,77.63
2018-08-24T02:39:59.726Z,78.47
2018-08-24T02:42:29.116Z,78.65
2018-08-24T02:44:58.528Z,79.43
2018-08-24T02:47:27.881Z,79.55
2018-08-24T02:49:57.258Z,80.07
2018-08-24T02:52:26.644Z,79.50
2018-08-24T02:54:56.045Z,79.59
2018-08-24T02:57:25.405Z,80.79
2018-08-24T02:59:54.805Z,81.29
2018-08-24T03:02:24.174Z,81.33
2018-08-24T03:04:53.598Z,81.63
2018-08-24T03:07:23.021Z,80.67
2018-08-24T03:09:52.406Z,81.62
2018-08-24T03:12:22.020Z,81.92
2018-08-24T03:14:51.405Z,81.83
2018-08-24T03:17:26.221Z,81.97
2018-08-24T03:19:55.638Z,82.82
2018-08-24T03:22:25.015Z,83.40
2018-08-24T03:24:54.400Z,82.49
2018-08-24T03:27:23.897Z,82.30
2018-08-24T03:29:53.274Z,82.58
2018-08-24T03:32:22.731Z,82.56
2018-08-24T03:34:52.110Z,81.75
2018-08-24T03:37:21.630Z,82.40
2018-08-24T03:39:53.072Z,83.14
2018-08-24T03:42:22.552Z,82.99
2018-08-24T03:44:51.942Z,82.98
2018-08-24T03:47:21.639Z,82.84
2018-08-24T03:49:51.052Z,82.11
2018-08-24T03:52:20.457Z,82.02
2018-08-24T03:54:49.874Z,81.81
2018-08-24T03:57:19.369Z,83.32
2018-08-24T03:59:48.753Z,82.44
2018-08-24T04:02:18.152Z,82.58
2018-08-24T04:04:47.525Z,83.30
2018-08-24T04:07:16.918Z,81.98
2018-08-24T04:09:46.294Z,81.69
2018-08-24T04:12:15.684Z,82.17
2018-08-24T04:14:45.066Z,81.73
2018-08-24T04:17:19.745Z,81.27
2018-08-24T04:19:49.146Z,81.13
2018-08-24T04:22:18.542Z,81.07
2018-08-24T04:24:47.910Z,81.93
2018-08-24T04:27:17.325Z,82.40
2018-08-24T04:29:46.754Z,82.52
2018-08-24T04:32:16.118Z,82.96
2018-08-24T04:34:45.560Z,83.54
2018-08-24T04:37:14.918Z,82.98
2018-08-24T04:39:44.313Z,83.94
2018-08-24T04:42:13.859Z,84.18
2018-08-24T04:44:43.249Z,84.55
2018-08-24T04:47:12.619Z,84.93
2018-08-24T04:49:42.057Z,85.31
2018-08-24T04:52:11.430Z,85.13
2018-08-24T04:54:40.866Z,85.29
2018-08-24T04:57:10.308Z,86.91
2018-08-24T04:59:39.711Z,85.70
2018-08-24T05:02:09.221Z,86.30
2018-08-24T05:04:38.602Z,85.30
2018-08-24T05:07:08.026Z,83.96
2018-08-24T05:09:37.402Z,82.13
2018-08-24T05:12:06.806Z,81.57
2018-08-24T05:14:36.193Z,81.00
2018-08-24T05:17:05.654Z,81.87
2018-08-24T05:19:35.005Z,81.44
2018-08-24T05:22:04.390Z,82.20
2018-08-24T05:24:34.860Z,82.94
2018-08-24T05:27:04.227Z,83.16
2018-08-24T05:29:34.145Z,82.98
2018-08-24T05:32:03.537Z,82.84
2018-08-24T05:34:33.022Z,82.55
2018-08-24T05:37:02.401Z,82.89
2018-08-24T05:39:32.261Z,81.77
2018-08-24T05:42:01.702Z,81.35
2018-08-24T05:44:31.104Z,81.42
2018-08-24T05:47:00.489Z,80.82
2018-08-24T05:49:29.879Z,81.40
2018-08-24T05:51:59.265Z,81.71
2018-08-24T05:54:28.686Z,80.82
2018-08-24T05:56:58.095Z,80.75
2018-08-24T05:59:27.526Z,80.06
2018-08-24T06:01:56.946Z,79.21
2018-08-24T06:04:27.389Z,78.84
2018-08-24T06:06:59.106Z,77.89
2018-08-24T06:09:28.494Z,77.07
2018-08-24T06:11:59.170Z,76.54
2018-08-24T06:14:28.548Z,75.00
2018-08-24T06:17:03.187Z,73.88
2018-08-24T06:19:32.590Z,72.32
2018-08-24T06:22:01.986Z,73.61
2018-08-24T06:24:31.491Z,72.28
2018-08-24T06:27:00.804Z,71.34
2018-08-24T06:29:30.194Z,70.60
2018-08-24T06:31:59.598Z,70.60
2018-08-24T06:34:30.009Z,69.49
2018-08-24T06:36:59.423Z,69.95
2018-08-24T06:39:28.830Z,68.29
2018-08-24T06:41:58.293Z,69.12
2018-08-24T06:44:27.601Z,68.55
2018-08-24T06:46:57.008Z,69.16
2018-08-24T06:49:26.390Z,69.23
2018-08-24T06:51:55.773Z,69.11
2018-08-24T06:54:25.189Z,69.05
2018-08-24T06:56:54.633Z,69.49
2018-08-24T06:59:24.014Z,70.22
2018-08-24T07:01:53.425Z,70.14
2018-08-24T07:04:22.814Z,70.55
2018-08-24T07:06:52.222Z,69.63
2018-08-24T07:09:21.598Z,70.70
2018-08-24T07:11:50.988Z,71.12
2018-08-24T07:14:20.387Z,70.61
2018-08-24T07:16:53.909Z,70.76
2018-08-24T07:19:23.295Z,71.27
2018-08-24T07:21:52.683Z,71.99
2018-08-24T07:24:26.102Z,73.48
2018-08-24T07:26:55.890Z,75.29
2018-08-24T07:29:25.343Z,75.48
2018-08-24T07:31:54.694Z,77.61
2018-08-24T07:34:24.074Z,77.72
2018-08-24T07:36:53.495Z,78.37
2018-08-24T07:39:22.877Z,78.15
2018-08-24T07:41:52.320Z,77.22
2018-08-24T07:44:21.690Z,79.52
2018-08-24T07:46:51.078Z,79.47
2018-08-24T07:49:20.493Z,80.25
2018-08-24T07:51:49.930Z,81.16
2018-08-24T07:54:19.306Z,80.48
2018-08-24T07:56:48.696Z,81.93
2018-08-24T07:59:18.097Z,82.40
2018-08-24T08:01:47.550Z,82.34
2018-08-24T08:04:16.962Z,81.24
2018-08-24T08:06:46.518Z,83.34
2018-08-24T08:09:15.930Z,83.94
2018-08-24T08:11:45.338Z,84.79
2018-08-24T08:14:14.725Z,84.08
2018-08-24T08:16:44.217Z,83.22
2018-08-24T08:19:13.693Z,84.18
2018-08-24T08:21:43.121Z,83.43
2018-08-24T08:24:12.493Z,83.42
2018-08-24T08:26:41.880Z,84.06
2018-08-24T08:29:15.678Z,84.15
2018-08-24T08:31:45.033Z,83.18
2018-08-24T08:34:14.462Z,82.81
2018-08-24T08:36:43.926Z,82.22
2018-08-24T08:39:13.585Z,81.88
2018-08-24T08:41:43.439Z,82.29
2018-08-24T08:44:14.054Z,78.81
2018-08-24T08:46:43.680Z,79.31
2018-08-24T08:49:13.193Z,79.88
2018-08-24T08:51:42.580Z,77.58
2018-08-24T08:54:11.974Z,78.15
2018-08-24T08:56:41.382Z,79.16
2018-08-24T08:59:10.775Z,78.52
2018-08-24T09:01:40.165Z,78.62
2018-08-24T09:04:09.581Z,79.77
2018-08-24T09:06:39.114Z,78.11
2018-08-24T09:09:09.802Z,79.22
2018-08-24T09:11:39.197Z,78.86
2018-08-24T09:14:08.616Z,78.19
2018-08-24T09:16:37.958Z,78.62
2018-08-24T09:19:12.510Z,76.69
2018-08-24T09:21:46.957Z,78.29
2018-08-24T09:24:21.379Z,77.19
2018-08-24T09:26:56.038Z,74.96
2018-08-24T09:29:27.657Z,74.89
2018-08-24T09:31:58.754Z,72.57
2018-08-24T09:34:28.127Z,73.50
2018-08-24T09:36:57.586Z,73.28
2018-08-24T09:39:28.004Z,74.20
2018-08-24T09:41:59.391Z,72.77
2018-08-24T09:44:28.877Z,74.40
2018-08-24T09:47:03.581Z,73.65
2018-08-24T09:49:36.267Z,73.88
2018-08-24T09:52:10.989Z,73.54
2018-08-24T09:54:40.378Z,72.56
2018-08-24T09:57:09.749Z,70.46
2018-08-24T09:59:39.154Z,69.67
2018-08-24T10:02:13.549Z,66.02
2018-08-24T10:04:48.139Z,67.63
2018-08-24T10:07:24.186Z,67.04
2018-08-24T10:09:53.543Z,66.68
2018-08-24T10:12:22.913Z,66.33
2018-08-24T10:14:52.285Z,67.54
2018-08-24T10:17:25.961Z,67.93
2018-08-24T10:19:55.461Z,68.51
2018-08-24T10:22:24.950Z,66.83
2018-08-24T10:24:54.378Z,67.36
2018-08-24T10:27:23.765Z,66.85
2018-08-24T10:29:53.182Z,64.42
2018-08-24T10:32:22.773Z,64.63
2018-08-24T10:34:52.182Z,61.57
2018-08-24T10:37:21.572Z,61.15
2018-08-24T10:39:51.061Z,59.78
2018-08-24T10:42:20.455Z,61.23
2018-08-24T10:44:49.830Z,59.59
2018-08-24T10:47:19.283Z,58.80
2018-08-24T10:49:48.614Z,59.58
2018-08-24T10:52:18.042Z,58.28
2018-08-24T10:54:47.405Z,57.28
2018-08-24T10:57:16.801Z,58.23
2018-08-24T10:59:46.168Z,59.02
2018-08-24T11:02:15.578Z,59.22
2018-08-24T11:04:44.950Z,59.42
2018-08-24T11:07:14.363Z,60.35
2018-08-24T11:09:43.718Z,59.84
2018-08-24T11:12:13.121Z,60.47
2018-08-24T11:14:42.506Z,61.48
2018-08-24T11:17:11.978Z,59.66
2018-08-24T11:19:41.373Z,58.89
2018-08-24T11:22:10.816Z,57.40
2018-08-24T11:24:40.198Z,57.32
2018-08-24T11:27:09.594Z,56.74
2018-08-24T11:29:39.008Z,56.68
2018-08-24T11:32:08.386Z,54.30
2018-08-24T11:34:37.789Z,53.57
2018-08-24T11:37:07.264Z,52.03
2018-08-24T11:39:36.637Z,51.18
2018-08-24T11:42:06.053Z,51.58
2018-08-24T11:44:35.438Z,51.66
2018-08-24T11:47:05.017Z,53.15
2018-08-24T11:49:34.406Z,54.35
2018-08-24T11:52:03.779Z,60.32
2018-08-24T11:54:33.284Z,62.16
2018-08-24T11:57:02.633Z,62.28
2018-08-24T11:59:31.987Z,63.59
2018-08-24T12:02:01.432Z,63.48
2018-08-24T12:04:30.894Z,64.25
2018-08-24T12:07:00.274Z,63.36
2018-08-24T12:09:29.666Z,62.90
2018-08-24T12:11:59.107Z,61.91
2018-08-24T12:14:28.486Z,60.83
2018-08-24T12:16:57.970Z,60.19
2018-08-24T12:19:27.434Z,59.36
2018-08-24T12:21:56.841Z,59.21
2018-08-24T12:24:26.309Z,59.56
2018-08-24T12:26:55.674Z,58.03
2018-08-24T12:29:25.078Z,55.14
2018-08-24T12:31:54.482Z,55.03
2018-08-24T12:34:23.965Z,54.39
2018-08-24T12:36:53.481Z,53.54
2018-08-24T12:39:22.867Z,52.96
2018-08-24T12:41:52.314Z,51.50
2018-08-24T12:44:21.683Z,52.55
2018-08-24T12:46:51.086Z,52.64
2018-08-24T12:49:20.562Z,52.36
2018-08-24T12:51:49.936Z,51.99
2018-08-24T12:54:19.302Z,52.02
2018-08-24T12:56:48.668Z,51.67
2018-08-24T12:59:18.055Z,52.13
2018-08-24T13:01:47.420Z,52.21
2018-08-24T13:04:16.868Z,52.03
2018-08-24T13:06:46.301Z,52.33
2018-08-24T13:09:15.718Z,51.43
2018-08-24T13:11:45.150Z,50.62
2018-08-24T13:14:14.682Z,50.33
2018-08-24T13:16:44.418Z,51.73
2018-08-24T13:19:13.865Z,51.66
2018-08-24T13:21:43.329Z,51.13
2018-08-24T13:24:12.692Z,50.02
2018-08-24T13:26:42.123Z,48.22
2018-08-24T13:29:11.526Z,48.27
2018-08-24T13:31:40.920Z,48.69
2018-08-24T13:34:10.286Z,48.79
2018-08-24T13:36:39.642Z,47.54
2018-08-24T13:39:12.486Z,45.81
2018-08-24T13:41:41.946Z,43.42
2018-08-24T13:44:11.389Z,44.41
2018-08-24T13:46:40.761Z,44.52
2018-08-24T13:49:10.116Z,43.87
2018-08-24T13:51:39.522Z,44.34
2018-08-24T13:54:09.333Z,44.98
2018-08-24T13:56:38.738Z,41.44
2018-08-24T13:59:08.206Z,37.97
2018-08-24T14:01:37.665Z,39.94
2018-08-24T14:04:07.070Z,41.37
2018-08-24T14:06:36.446Z,43.99
2018-08-24T14:09:09.606Z,43.36
2018-08-24T14:11:38.977Z,42.64
2018-08-24T14:14:08.818Z,42.11
2018-08-24T14:16:38.554Z,41.50
2018-08-24T14:19:08.174Z,37.89
2018-08-24T14:21:37.875Z,38.59
2018-08-24T14:24:07.597Z,39.31
2018-08-24T14:26:37.168Z,40.22
2018-08-24T14:29:06.617Z,44.19
2018-08-24T14:31:36.070Z,45.37
2018-08-24T14:34:05.413Z,44.97
2018-08-24T14:36:34.898Z,45.56
2018-08-24T14:39:05.051Z,44.36
2018-08-24T14:41:34.422Z,42.69
2018-08-24T14:44:03.966Z,41.17
2018-08-24T14:46:33.352Z,42.07
2018-08-24T14:49:02.743Z,41.54
2018-08-24T14:51:32.261Z,40.83
2018-08-24T14:54:01.646Z,39.63
2018-08-24T14:56:31.039Z,38.72
2018-08-24T14:59:00.446Z,37.78
2018-08-24T15:01:29.830Z,37.99
2018-08-24T15:03:59.231Z,38.21
2018-08-24T15:06:28.646Z,39.01
2018-08-24T15:08:58.042Z,38.05
2018-08-24T15:11:27.482Z,37.71
2018-08-24T15:13:56.847Z,36.44
2018-08-24T15:16:26.290Z,36.66
2018-08-24T15:18:55.655Z,36.19
2018-08-24T15:21:25.027Z,37.80
2018-08-24T15:23:54.417Z,36.18
2018-08-24T15:26:23.847Z,35.28
2018-08-24T15:28:53.265Z,34.66
2018-08-24T15:31:22.800Z,35.41
2018-08-24T15:33:52.260Z,36.10
2018-08-24T15:36:21.713Z,34.72
2018-08-24T15:38:51.166Z,33.34
2018-08-24T15:41:20.566Z,32.93
2018-08-24T15:43:49.938Z,33.40
2018-08-24T15:46:19.347Z,33.02
2018-08-24T15:48:48.705Z,32.98
2018-08-24T15:51:18.110Z,32.47
2018-08-24T15:53:47.490Z,33.92
2018-08-24T15:56:16.931Z,33.46
2018-08-24T15:58:46.406Z,31.99
2018-08-24T16:01:15.802Z,32.30
2018-08-24T16:03:45.293Z,31.11
2018-08-24T16:06:14.693Z,31.48
2018-08-24T16:08:44.145Z,31.71
2018-08-24T16:11:13.525Z,33.91
2018-08-24T16:13:42.946Z,34.82
2018-08-24T16:16:12.366Z,35.21
2018-08-24T16:18:41.839Z,36.79
2018-08-24T16:21:11.226Z,36.35
2018-08-24T16:23:40.648Z,38.17
2018-08-24T16:26:14.147Z,38.27
2018-08-24T16:28:43.510Z,38.30
2018-08-24T16:31:12.918Z,39.71
2018-08-24T16:33:42.314Z,40.23
2018-08-24T16:36:11.951Z,41.03
2018-08-24T16:38:41.352Z,40.56
2018-08-24T16:41:10.814Z,41.45
2018-08-24T16:43:40.290Z,40.45
2018-08-24T16:46:09.666Z,42.20
2018-08-24T16:48:39.230Z,42.03
2018-08-24T16:51:09.217Z,42.29
2018-08-24T16:53:38.691Z,42.20
2018-08-24T16:56:08.339Z,42.73
2018-08-24T16:58:37.809Z,42.55
2018-08-24T17:01:07.854Z,43.74
2018-08-24T17:03:37.235Z,43.60
2018-08-24T17:06:06.639Z,44.62
2018-08-24T17:08:36.026Z,44.30
2018-08-24T17:11:05.439Z,44.51
2018-08-24T17:13:34.922Z,45.24
2018-08-24T17:16:04.318Z,44.31
2018-08-24T17:18:33.730Z,45.42
2018-08-24T17:21:03.159Z,45.62
2018-08-24T17:23:32.611Z,46.58
2018-08-24T17:26:02.002Z,46.33
2018-08-24T17:28:31.431Z,46.80
2018-08-24T17:31:00.817Z,46.35
2018-08-24T17:33:30.246Z,46.53
2018-08-24T17:35:59.718Z,46.35
2018-08-24T17:38:29.123Z,47.01
2018-08-24T17:40:58.506Z,47.96
2018-08-24T17:43:27.890Z,47.37
2018-08-24T17:45:57.398Z,47.56
2018-08-24T17:48:26.770Z,48.34
2018-08-24T17:50:56.166Z,48.38
2018-08-24T17:53:25.526Z,48.19
2018-08-24T17:55:54.919Z,49.42
2018-08-24T17:58:24.346Z,48.45
2018-08-24T18:00:53.835Z,48.55
2018-08-24T18:03:23.917Z,49.67
2018-08-24T18:05:54.232Z,48.42
2018-08-24T18:08:23.618Z,48.65
2018-08-24T18:10:53.000Z,48.71
2018-08-24T18:13:22.400Z,48.73
2018-08-24T18:15:51.783Z,49.64
2018-08-24T18:18:21.237Z,49.66
2018-08-24T18:20:50.640Z,49.10
2018-08-24T18:23:20.041Z,49.95
2018-08-24T18:25:49.478Z,49.57
2018-08-24T18:28:18.998Z,50.30
2018-08-24T18:30:48.434Z,50.31
2018-08-24T18:33:18.059Z,50.61
2018-08-24T18:35:47.647Z,50.34
2018-08-24T18:38:17.137Z,50.52
2018-08-24T18:40:46.532Z,50.59
2018-08-24T18:43:16.081Z,50.18
2018-08-24T18:45:45.570Z,50.62
2018-08-24T18:48:15.056Z,49.83
2018-08-24T18:50:44.814Z,50.43
2018-08-24T18:53:14.208Z,51.59
2018-08-24T18:55:43.740Z,51.51
2018-08-24T18:58:13.167Z,50.97
2018-08-24T19:00:42.729Z,50.67
2018-08-24T19:03:12.399Z,50.80
2018-08-24T19:05:42.591Z,51.63
2018-08-24T19:08:14.661Z,52.31
2018-08-24T19:10:51.557Z,52.33
2018-08-24T19:13:24.193Z,52.00
2018-08-24T19:15:56.772Z,51.98
2018-08-24T19:18:34.482Z,51.86
2018-08-24T19:21:11.751Z,51.62
2018-08-24T19:23:44.894Z,52.68
2018-08-24T19:26:17.595Z,52.38
2018-08-24T19:28:55.201Z,53.33
2018-08-24T19:31:27.291Z,53.36
2018-08-24T19:33:59.092Z,53.55
2018-08-24T19:36:30.688Z,53.64
2018-08-24T19:39:03.650Z,53.73
2018-08-24T19:41:41.214Z,53.19
2018-08-24T19:44:13.933Z,53.06
2018-08-24T19:46:46.249Z,52.86
2018-08-24T19:49:18.331Z,53.28
2018-08-24T19:51:49.490Z,53.34
2018-08-24T19:54:20.096Z,53.17
2018-08-24T19:56:51.098Z,53.54
2018-08-24T19:59:22.660Z,53.63
2018-08-24T20:01:53.567Z,53.44
2018-08-24T20:04:25.929Z,53.83
2018-08-24T20:07:02.973Z,53.83
2018-08-24T20:09:38.459Z,53.96
2018-08-24T20:12:09.011Z,54.74
2018-08-24T20:14:44.196Z,54.84
2018-08-24T20:17:19.032Z,54.84
2018-08-24T20:19:48.510Z,54.22
2018-08-24T20:22:18.469Z,55.04
2018-08-24T20:24:48.739Z,55.16
2018-08-24T20:27:19.615Z,54.64
2018-08-24T20:29:49.416Z,54.66
2018-08-24T20:32:19.725Z,55.46
2018-08-24T20:34:49.205Z,55.30
2018-08-24T20:37:18.718Z,54.51
2018-08-24T20:39:48.098Z,55.12
2018-08-24T20:42:17.669Z,55.91
2018-08-24T20:44:47.078Z,57.41
2018-08-24T20:47:16.663Z,57.14
2018-08-24T20:49:46.087Z,57.37
2018-08-24T20:52:15.542Z,57.58
2018-08-24T20:54:45.003Z,57.86
2018-08-24T20:57:14.517Z,58.21
2018-08-24T20:59:44.043Z,57.45
2018-08-24T21:02:13.448Z,58.17
2018-08-24T21:04:42.834Z,59.54
2018-08-24T21:07:12.230Z,60.81
2018-08-24T21:09:41.731Z,60.87
2018-08-24T21:12:11.142Z,62.02
2018-08-24T21:14:40.588Z,60.10
2018-08-24T21:17:10.023Z,60.87
2018-08-24T21:19:39.384Z,60.27
2018-08-24T21:22:08.946Z,61.45
2018-08-24T21:24:38.451Z,61.78
2018-08-24T21:27:07.875Z,61.88
2018-08-24T21:29:37.276Z,61.76
2018-08-24T21:32:06.827Z,62.82
2018-08-24T21:34:36.214Z,63.10
2018-08-24T21:37:05.594Z,64.35
2018-08-24T21:39:35.182Z,64.98
2018-08-24T21:42:04.662Z,65.42
2018-08-24T21:44:34.030Z,64.48
2018-08-24T21:47:03.690Z,64.12
2018-08-24T21:49:33.058Z,64.05
2018-08-24T21:52:02.423Z,63.92
2018-08-24T21:54:31.790Z,64.26
2018-08-24T21:57:01.146Z,64.34
2018-08-24T21:59:30.544Z,64.82
2018-08-24T22:02:00.035Z,65.74
2018-08-24T22:04:29.489Z,66.36
2018-08-24T22:06:58.884Z,66.76
2018-08-24T22:09:28.271Z,66.80
2018-08-24T22:11:57.706Z,66.89
2018-08-24T22:14:27.124Z,66.23
2018-08-24T22:16:56.560Z,66.67
2018-08-24T22:19:25.910Z,66.42
2018-08-24T22:21:55.273Z,67.19
2018-08-24T22:24:24.670Z,67.48
2018-08-24T22:26:54.049Z,67.48
2018-08-24T22:29:23.443Z,66.41
2018-08-24T22:31:52.837Z,66.61
2018-08-24T22:34:22.221Z,67.60
2018-08-24T22:36:51.619Z,67.95
2018-08-24T22:39:21.001Z,67.76
2018-08-24T22:41:50.383Z,67.80
2018-08-24T22:44:19.806Z,68.30
2018-08-24T22:46:49.178Z,68.03
2018-08-24T22:49:18.581Z,68.51
2018-08-24T22:51:48.422Z,67.85
2018-08-24T22:54:17.833Z,68.61
2018-08-24T22:56:47.315Z,68.75
2018-08-24T22:59:16.713Z,68.97
2018-08-24T23:01:46.179Z,69.33
2018-08-24T23:04:15.576Z,69.36
2018-08-24T23:06:45.084Z,69.77
2018-08-24T23:09:14.670Z,68.91
2018-08-24T23:11:44.081Z,69.93
2018-08-24T23:14:13.458Z,69.82
2018-08-24T23:16:42.813Z,70.20
2018-08-24T23:19:12.194Z,70.06
2018-08-24T23:21:41.598Z,69.68
2018-08-24T23:24:10.994Z,69.66
2018-08-24T23:26:40.354Z,69.27
2018-08-24T23:29:09.817Z,69.11
2018-08-24T23:31:39.210Z,69.37
2018-08-24T23:34:08.611Z,69.62
2018-08-24T23:36:37.978Z,69.36
2018-08-24T23:39:10.038Z,70.13
2018-08-24T23:41:39.413Z,70.68
2018-08-24T23:44:09.460Z,70.62
2018-08-24T23:46:38.921Z,70.13
2018-08-24T23:49:08.326Z,70.42
2018-08-24T23:51:37.714Z,70.37
2018-08-24T23:54:07.166Z,69.87
2018-08-24T23:56:36.547Z,70.06
2018-08-24T23:59:06.013Z,70.48
